Amarillo, TX

4:10 AM CST on November 23, 2014 (GMT -0600)
Amarillo International | Change Station
CLOSE
Current Station
Airport
Location: Amarillo,
Elevation: 3606 ft
Nearby Weather Stations
Active Advisory: Wind Advisory

Elev 3606 ft 35.22 °N, 101.72 °W | Updated 17 minutes ago

Partly Cloudy
Partly Cloudy
52 °F
Feels Like 52 °F
N
16
Wind Variable Wind from West
Gusts 25 mph

Today
High -- | Low -- °F
--% Chance of Precip.
Yesterday
High -- | Low -- °F
Precip. -- in
7:30 AM 5:37 PM
New Moon, 1% visible
Pressure 29.37 in
Visibility 10.0 miles
Clouds Clear
Dew Point 20 °F
Humidity 28%
Rainfall 0.00 in
Snow Depth Not available.
UV 0 out of 12
Pollen 5.80 out of 12
Air Quality Not available.
Flu Activity Not available.
METAR KAMA 230953Z AUTO 28014G22KT 10SM CLR 11/M07 A2948 RMK AO2 PK WND 26027/0916 SLP945 T01111067

More Conditions Fewer Conditions

Pressure 29.37 in
Visibility 10.0 miles
Clouds Clear
Dew Point 20 °F
Humidity 28%
Rainfall 0.00 in
Snow Depth Not available.
UV 0 out of 12
Pollen 5.80 out of 12
Air Quality Not available.
Flu Activity Not available.
METAR KAMA 230953Z AUTO 28014G22KT 10SM CLR 11/M07 A2948 RMK AO2 PK WND 26027/0916 SLP945 T01111067

More Conditions Fewer Conditions

10-Day Weather Forecast

Almanac

Astronomy

Nov. 23, 2014 Rise Set
Actual Time
Civil Twilight
Nautical Twilight
Astronomical Twilight
Moon
Length of Visible Light
Length of Day
Tomorrow will be .
, % of the Moon is Illuminated

Today's Extremes

State Highs State Lows

Community

WunderPhotos

Upload Photos

1,773,031 photos uploaded!

WunderBlogs® & News

Nearby

Air Quality

  Air Quality AQ Index Pollutant
Not available.

Snow Depth

Station Depth Elevation

Earthquake Activity

City Distance Mag. Time & Date
Minimum magnitude displayed is 2.5.

Coastal Water Temperatures

Place Temperature

Nearby Weather Stations